AIRPORT ID: KEDG

DATE: 2024-02-27 ZULU TIME: 9.55 LOCAL TIME: 4.55


METAR KEDG 270955Z AUTO 00000KT 10SM 02/01 A2999

ALTIMETER: A2999 Q1016

DENSITY ALT: -1400 Ft

WIND DIRECT: 290

WIND SPEED: 2 Gust

WIND CONDITIONS:

VISIBILTY: 10SM 9999M

TEMPERATURE: 36 F 2 C

DEW POINT: 34 F 1 C

HUMID: 94%

LCL: Under 500 feet

RADIO CHECK: 0

ADVISARIES: 0

GREETINGS: 0

CONVERSATIONS: 0